createdAt,value
2017-12-01T00:00:59.284Z,99.15
2017-12-01T00:01:59.267Z,99.15
2017-12-01T00:02:59.270Z,98.96
2017-12-01T00:03:59.245Z,98.96
2017-12-01T00:04:59.224Z,98.96
2017-12-01T00:05:59.217Z,99.43
2017-12-01T00:06:59.200Z,98.96
2017-12-01T00:07:59.186Z,98.86
2017-12-01T00:08:59.179Z,99.05
2017-12-01T00:09:59.182Z,99.24
2017-12-01T00:10:59.172Z,99.05
2017-12-01T00:11:58.864Z,99.15
2017-12-01T00:12:59.118Z,98.96
2017-12-01T00:13:59.090Z,99.24
2017-12-01T00:14:59.083Z,99.15
2017-12-01T00:15:59.067Z,98.63
2017-12-01T00:16:59.055Z,98.68
2017-12-01T00:17:59.044Z,99.01
2017-12-01T00:18:59.026Z,98.96
2017-12-01T00:19:59.008Z,98.91
2017-12-01T00:20:59.000Z,99.24
2017-12-01T00:21:58.971Z,99.15
2017-12-01T00:22:58.972Z,98.86
2017-12-01T00:23:58.949Z,99.15
2017-12-01T00:24:58.930Z,98.53
2017-12-01T00:25:58.924Z,98.77
2017-12-01T00:26:58.894Z,98.68
2017-12-01T00:27:58.888Z,98.63
2017-12-01T00:28:58.880Z,98.72
2017-12-01T00:29:58.868Z,98.82
2017-12-01T00:30:58.847Z,98.77
2017-12-01T00:31:58.839Z,98.72
2017-12-01T00:32:58.555Z,98.72
2017-12-01T00:33:58.795Z,98.63
2017-12-01T00:34:58.778Z,98.86
2017-12-01T00:35:58.766Z,99.01
2017-12-01T00:36:58.751Z,98.86
2017-12-01T00:37:58.736Z,98.63
2017-12-01T00:38:58.780Z,98.82
2017-12-01T00:39:58.712Z,98.82
2017-12-01T00:40:58.760Z,98.77
2017-12-01T00:41:58.686Z,98.77
2017-12-01T00:42:58.671Z,98.86
2017-12-01T00:43:58.647Z,98.77
2017-12-01T00:44:58.648Z,98.77
2017-12-01T00:45:58.624Z,98.96
2017-12-01T00:46:58.351Z,98.96
2017-12-01T00:47:58.586Z,99.05
2017-12-01T00:48:58.624Z,98.3
2017-12-01T00:49:58.320Z,98.68
2017-12-01T00:50:58.564Z,98.49
2017-12-01T00:51:58.579Z,98.11
2017-12-01T00:52:58.512Z,98.3
2017-12-01T00:53:58.513Z,98.39
2017-12-01T00:54:58.521Z,98.49
2017-12-01T00:55:58.514Z,98.68
2017-12-01T00:56:58.507Z,98.3
2017-12-01T00:57:58.448Z,97.92
2017-12-01T00:58:58.422Z,98.2
2017-12-01T00:59:58.414Z,97.92
2017-12-01T01:00:58.408Z,97.82
2017-12-01T01:01:58.382Z,97.92
2017-12-01T01:02:58.365Z,97.44
2017-12-01T01:03:58.362Z,97.35
2017-12-01T01:04:58.341Z,97.63
2017-12-01T01:05:58.324Z,97.16
2017-12-01T01:06:58.309Z,97.4
2017-12-01T01:07:58.292Z,97.21
2017-12-01T01:08:58.344Z,97.11
2017-12-01T01:09:58.271Z,97.21
2017-12-01T01:10:58.262Z,97.02
2017-12-01T01:11:58.250Z,97.49
2017-12-01T01:12:58.246Z,97.3
2017-12-01T01:13:58.203Z,97.68
2017-12-01T01:14:58.191Z,97.4
2017-12-01T01:15:58.184Z,97.02
2017-12-01T01:16:58.173Z,97.11
2017-12-01T01:17:58.145Z,97.21
2017-12-01T01:18:58.145Z,97.21
2017-12-01T01:19:58.126Z,96.83
2017-12-01T01:20:57.853Z,96.45
2017-12-01T01:21:58.100Z,96.83
2017-12-01T01:22:58.079Z,96.92
2017-12-01T01:23:58.071Z,96.73
2017-12-01T01:24:58.071Z,96.64
2017-12-01T01:25:57.776Z,96.73
2017-12-01T01:26:58.056Z,96.73
2017-12-01T01:27:58.044Z,96.83
2017-12-01T01:28:58.001Z,96.55
2017-12-01T01:29:58.000Z,96.55
2017-12-01T01:30:58.005Z,96.55
2017-12-01T01:31:57.693Z,96.73
2017-12-01T01:32:57.960Z,96.36
2017-12-01T01:33:57.927Z,96.26
2017-12-01T01:34:57.906Z,96.45
2017-12-01T01:35:57.993Z,96.45
2017-12-01T01:36:57.889Z,96.45
2017-12-01T01:37:57.867Z,96.45
2017-12-01T01:38:57.591Z,96.73
2017-12-01T01:39:57.833Z,95.69
2017-12-01T01:40:57.824Z,95.98
2017-12-01T01:41:57.806Z,96.45
2017-12-01T01:42:57.792Z,96.45
2017-12-01T01:43:57.831Z,96.07
2017-12-01T01:44:57.766Z,95.88
2017-12-01T01:45:57.761Z,95.88
2017-12-01T01:46:57.745Z,95.98
2017-12-01T01:47:57.735Z,95.88
2017-12-01T01:48:57.461Z,95.98
2017-12-01T01:49:57.694Z,95.88
2017-12-01T01:50:57.690Z,95.88
2017-12-01T01:51:57.674Z,95.98
2017-12-01T01:52:57.653Z,95.69
2017-12-01T01:53:57.638Z,96.26
2017-12-01T01:54:57.368Z,96.07
2017-12-01T01:55:57.619Z,96.17
2017-12-01T01:56:57.598Z,95.88
2017-12-01T01:57:57.586Z,95.88
2017-12-01T01:58:57.578Z,95.69
2017-12-01T01:59:57.559Z,96.26
2017-12-01T02:00:57.547Z,95.69
2017-12-01T02:01:57.521Z,95.69
2017-12-01T02:02:57.523Z,95.98
2017-12-01T02:03:57.498Z,96.55
2017-12-01T02:04:57.498Z,96.73
2017-12-01T02:05:57.478Z,96.17
2017-12-01T02:06:57.463Z,95.88
2017-12-01T02:07:57.191Z,96.64
2017-12-01T02:08:57.433Z,96.55
2017-12-01T02:09:57.415Z,96.45
2017-12-01T02:10:57.398Z,96.45
2017-12-01T02:11:57.390Z,96.26
2017-12-01T02:12:57.381Z,96.45
2017-12-01T02:13:57.364Z,96.64
2017-12-01T02:14:57.343Z,96.73
2017-12-01T02:15:57.338Z,96.73
2017-12-01T02:16:57.321Z,96.73
2017-12-01T02:17:57.309Z,96.36
2017-12-01T02:18:57.292Z,96.64
2017-12-01T02:19:57.282Z,96.64
2017-12-01T02:20:57.255Z,96.73
2017-12-01T02:21:56.991Z,96.26
2017-12-01T02:22:57.228Z,96.83
2017-12-01T02:23:57.211Z,96.73
2017-12-01T02:24:56.965Z,96.55
2017-12-01T02:25:57.192Z,96.64
2017-12-01T02:26:57.170Z,96.64
2017-12-01T02:27:57.158Z,96.55
2017-12-01T02:28:57.153Z,96.73
2017-12-01T02:29:57.131Z,96.36
2017-12-01T02:30:56.900Z,96.55
2017-12-01T02:31:57.109Z,96.26
2017-12-01T02:32:57.086Z,96.64
2017-12-01T02:33:57.078Z,96.64
2017-12-01T02:34:57.058Z,96.55
2017-12-01T02:35:57.053Z,96.55
2017-12-01T02:36:57.038Z,96.64
2017-12-01T02:37:57.023Z,96.73
2017-12-01T02:38:57.013Z,96.92
2017-12-01T02:39:56.988Z,97.21
2017-12-01T02:40:56.979Z,97.02
2017-12-01T02:41:56.961Z,97.11
2017-12-01T02:42:56.954Z,97.11
2017-12-01T02:43:56.941Z,97.49
2017-12-01T02:44:56.934Z,97.59
2017-12-01T02:45:56.934Z,97.54
2017-12-01T02:46:56.922Z,97.06
2017-12-01T02:47:56.919Z,97.35
2017-12-01T02:48:56.866Z,97.16
2017-12-01T02:49:56.865Z,97.16
2017-12-01T02:50:56.915Z,97.16
2017-12-01T02:51:56.859Z,97.06
2017-12-01T02:52:56.843Z,97.16
2017-12-01T02:53:56.792Z,96.97
2017-12-01T02:54:56.778Z,97.06
2017-12-01T02:55:56.760Z,96.97
2017-12-01T02:56:56.751Z,97.06
2017-12-01T02:57:56.741Z,97.35
2017-12-01T02:58:56.458Z,97.35
2017-12-01T02:59:56.444Z,97.35
2017-12-01T03:00:56.681Z,97.35
2017-12-01T03:01:56.678Z,97.54
2017-12-01T03:02:56.672Z,97.35
2017-12-01T03:03:56.642Z,97.54
2017-12-01T03:04:56.372Z,97.92
2017-12-01T03:05:56.622Z,97.73
2017-12-01T03:06:56.596Z,97.82
2017-12-01T03:07:56.588Z,97.82
2017-12-01T03:08:56.564Z,97.63
2017-12-01T03:09:56.559Z,97.44
2017-12-01T03:10:56.539Z,98.01
2017-12-01T03:11:56.524Z,97.44
2017-12-01T03:12:56.510Z,97.44
2017-12-01T03:13:56.490Z,98.01
2017-12-01T03:14:56.480Z,97.92
2017-12-01T03:15:56.464Z,98.39
2017-12-01T03:16:56.455Z,98.3
2017-12-01T03:17:56.442Z,98.39
2017-12-01T03:18:56.424Z,98.39
2017-12-01T03:19:56.407Z,98.68
2017-12-01T03:20:56.184Z,98.2
2017-12-01T03:21:56.379Z,98.96
2017-12-01T03:22:56.359Z,98.91
2017-12-01T03:23:56.348Z,98.58
2017-12-01T03:24:56.352Z,99.1
2017-12-01T03:25:56.328Z,98.82
2017-12-01T03:26:56.300Z,98.63
2017-12-01T03:27:56.296Z,98.63
2017-12-01T03:28:56.274Z,98.53
2017-12-01T03:29:56.258Z,98.82
2017-12-01T03:30:56.255Z,98.91
2017-12-01T03:31:56.232Z,98.82
2017-12-01T03:32:56.220Z,98.72
2017-12-01T03:33:56.204Z,99.38
2017-12-01T03:34:56.189Z,99.01
2017-12-01T03:35:56.186Z,99.01
2017-12-01T03:36:56.181Z,99.38
2017-12-01T03:37:56.177Z,99.38
2017-12-01T03:38:55.877Z,99.01
2017-12-01T03:39:56.125Z,99.19
2017-12-01T03:40:56.158Z,99.85
2017-12-01T03:41:56.109Z,99.66
2017-12-01T03:42:56.116Z,99.85
2017-12-01T03:43:56.058Z,99.48
2017-12-01T03:44:56.041Z,99.57
2017-12-01T03:45:56.024Z,99.66
2017-12-01T03:46:56.012Z,99.57
2017-12-01T03:47:55.996Z,99.57
2017-12-01T03:48:55.979Z,99.57
2017-12-01T03:49:55.956Z,99.57
2017-12-01T03:50:55.945Z,99.85
2017-12-01T03:51:55.936Z,99.85
2017-12-01T03:52:55.920Z,99.99
2017-12-01T03:53:55.898Z,99.99
2017-12-01T03:54:55.891Z,99.99
2017-12-01T03:55:55.618Z,99.99
2017-12-01T03:56:55.859Z,99.99
2017-12-01T03:57:55.835Z,99.57
2017-12-01T03:58:55.827Z,99.48
2017-12-01T03:59:55.806Z,99.99
2017-12-01T04:00:55.792Z,99.48
2017-12-01T04:01:55.776Z,99.57
2017-12-01T04:02:55.764Z,99.66
2017-12-01T04:03:55.756Z,99.48
2017-12-01T04:04:55.740Z,99.57
2017-12-01T04:05:55.715Z,99.95
2017-12-01T04:06:55.702Z,99.76
2017-12-01T04:07:55.696Z,99.85
2017-12-01T04:08:55.670Z,99.95
2017-12-01T04:09:55.666Z,99.19
2017-12-01T04:10:55.652Z,99.38
2017-12-01T04:11:55.635Z,98.96
2017-12-01T04:12:55.725Z,99.57
2017-12-01T04:13:55.596Z,98.86
2017-12-01T04:14:55.591Z,98.91
2017-12-01T04:15:55.316Z,98.96
2017-12-01T04:16:55.561Z,98.86
2017-12-01T04:17:55.288Z,99.05
2017-12-01T04:18:55.527Z,99.05
2017-12-01T04:19:55.506Z,98.77
2017-12-01T04:20:55.505Z,98.86
2017-12-01T04:21:55.482Z,98.86
2017-12-01T04:22:55.465Z,99.05
2017-12-01T04:23:55.457Z,98.3
2017-12-01T04:24:55.441Z,98.68
2017-12-01T04:25:55.425Z,98.11
2017-12-01T04:26:55.405Z,98.39
2017-12-01T04:27:55.384Z,98.68
2017-12-01T04:28:55.374Z,98.86
2017-12-01T04:29:55.367Z,98.49
2017-12-01T04:30:55.345Z,98.68
2017-12-01T04:31:55.331Z,98.39
2017-12-01T04:32:55.317Z,98.11
2017-12-01T04:33:55.311Z,98.2
2017-12-01T04:34:55.287Z,97.54
2017-12-01T04:35:55.276Z,97.63
2017-12-01T04:36:55.262Z,97.73
2017-12-01T04:37:55.247Z,97.44
2017-12-01T04:38:55.233Z,97.82
2017-12-01T04:39:55.216Z,97.63
2017-12-01T04:40:55.198Z,97.92
2017-12-01T04:41:55.179Z,97.92
2017-12-01T04:42:55.176Z,97.82
2017-12-01T04:43:55.161Z,97.92
2017-12-01T04:44:55.136Z,97.82
2017-12-01T04:45:55.130Z,97.63
2017-12-01T04:46:55.117Z,97.35
2017-12-01T04:47:54.847Z,97.16
2017-12-01T04:48:55.088Z,97.44
2017-12-01T04:49:55.073Z,97.44
2017-12-01T04:50:55.049Z,97.35
2017-12-01T04:51:55.047Z,97.35
2017-12-01T04:52:55.029Z,97.25
2017-12-01T04:53:55.006Z,97.16
2017-12-01T04:54:55.002Z,97.16
2017-12-01T04:55:54.978Z,97.35
2017-12-01T04:56:54.963Z,97.44
2017-12-01T04:57:54.949Z,97.4
2017-12-01T04:58:54.937Z,97.4
2017-12-01T04:59:54.917Z,97.06
2017-12-01T05:00:54.918Z,97.35
2017-12-01T05:01:54.894Z,97.21
2017-12-01T05:02:54.883Z,97.16
2017-12-01T05:03:54.610Z,97.11
2017-12-01T05:04:54.846Z,97.4
2017-12-01T05:05:54.834Z,97.4
2017-12-01T05:06:54.827Z,97.49
2017-12-01T05:07:54.803Z,97.11
2017-12-01T05:08:54.789Z,97.49
2017-12-01T05:09:54.782Z,96.92
2017-12-01T05:10:54.769Z,96.83
2017-12-01T05:11:54.746Z,97.11
2017-12-01T05:12:54.734Z,97.11
2017-12-01T05:13:54.727Z,96.92
2017-12-01T05:14:54.699Z,97.02
2017-12-01T05:15:54.435Z,97.02
2017-12-01T05:16:54.672Z,97.11
2017-12-01T05:17:54.659Z,97.21
2017-12-01T05:18:54.651Z,97.11
2017-12-01T05:19:54.627Z,96.92
2017-12-01T05:20:54.626Z,96.92
2017-12-01T05:21:54.611Z,97.3
2017-12-01T05:22:54.585Z,97.02
2017-12-01T05:23:54.575Z,96.83
2017-12-01T05:24:54.576Z,96.26
2017-12-01T05:25:54.543Z,96.73
2017-12-01T05:26:54.535Z,96.26
2017-12-01T05:27:54.525Z,96.55
2017-12-01T05:28:54.499Z,96.83
2017-12-01T05:29:54.493Z,96.45
2017-12-01T05:30:54.483Z,96.26
2017-12-01T05:31:54.458Z,96.07
2017-12-01T05:32:54.452Z,96.64
2017-12-01T05:33:54.430Z,96.55
2017-12-01T05:34:54.425Z,96.45
2017-12-01T05:35:54.406Z,96.45
2017-12-01T05:36:54.384Z,96.45
2017-12-01T05:37:54.371Z,96.55
2017-12-01T05:38:54.359Z,96.07
2017-12-01T05:39:54.349Z,95.88
2017-12-01T05:40:54.329Z,95.88
2017-12-01T05:41:54.064Z,95.69
2017-12-01T05:42:54.309Z,95.98
2017-12-01T05:43:54.296Z,96.07
2017-12-01T05:44:54.300Z,96.36
2017-12-01T05:45:54.259Z,96.07
2017-12-01T05:46:54.244Z,96.07
2017-12-01T05:47:54.228Z,96.26
2017-12-01T05:48:54.217Z,95.88
2017-12-01T05:49:54.203Z,95.88
2017-12-01T05:50:54.194Z,96.45
2017-12-01T05:51:54.186Z,95.79
2017-12-01T05:52:53.905Z,95.79
2017-12-01T05:53:54.146Z,95.98
2017-12-01T05:54:54.128Z,95.98
2017-12-01T05:55:54.131Z,95.88
2017-12-01T05:56:54.102Z,96.26
2017-12-01T05:57:54.096Z,96.36
2017-12-01T05:58:54.136Z,95.88
2017-12-01T05:59:54.070Z,96.17
2017-12-01T06:00:54.055Z,96.17
2017-12-01T06:01:54.041Z,95.88
2017-12-01T06:02:54.019Z,96.07
2017-12-01T06:03:53.757Z,96.17
2017-12-01T06:04:53.738Z,96.07
2017-12-01T06:05:53.985Z,95.98
2017-12-01T06:06:53.960Z,96.45
2017-12-01T06:07:53.946Z,95.98
2017-12-01T06:08:53.954Z,96.36
2017-12-01T06:09:53.922Z,95.88
2017-12-01T06:10:53.900Z,95.98
2017-12-01T06:11:53.900Z,96.45
2017-12-01T06:12:53.886Z,96.64
2017-12-01T06:13:53.872Z,96.55
2017-12-01T06:14:53.849Z,96.26
2017-12-01T06:15:53.838Z,96.26
2017-12-01T06:16:53.827Z,96.73
2017-12-01T06:17:53.801Z,96.73
2017-12-01T06:18:53.795Z,97.11
2017-12-01T06:19:53.779Z,97.11
2017-12-01T06:20:53.767Z,96.92
2017-12-01T06:21:53.755Z,97.4
2017-12-01T06:22:53.742Z,97.35
2017-12-01T06:23:53.716Z,97.35
2017-12-01T06:24:53.705Z,97.49
2017-12-01T06:25:53.711Z,97.49
2017-12-01T06:26:53.684Z,97.21
2017-12-01T06:27:53.658Z,97.49
2017-12-01T06:28:53.653Z,97.4
2017-12-01T06:29:53.640Z,97.25
2017-12-01T06:30:53.631Z,96.83
2017-12-01T06:31:53.613Z,97.25
2017-12-01T06:32:53.336Z,97.25
2017-12-01T06:33:53.574Z,97.25
2017-12-01T06:34:53.568Z,97.44
2017-12-01T06:35:53.557Z,97.06
2017-12-01T06:36:53.540Z,96.97
2017-12-01T06:37:53.515Z,97.25
2017-12-01T06:38:53.502Z,97.16
2017-12-01T06:39:53.485Z,97.35
2017-12-01T06:40:53.509Z,97.54
2017-12-01T06:41:53.459Z,97.82
2017-12-01T06:42:53.442Z,98.2
2017-12-01T06:43:53.434Z,98.2
2017-12-01T06:44:53.420Z,98.86
2017-12-01T06:45:53.406Z,98.3
2017-12-01T06:46:53.448Z,98.11
2017-12-01T06:47:53.430Z,98.3
2017-12-01T06:48:53.355Z,98.96
2017-12-01T06:49:53.339Z,98.91
2017-12-01T06:50:53.332Z,98.96
2017-12-01T06:51:53.319Z,98.91
2017-12-01T06:52:53.302Z,99.38
2017-12-01T06:53:53.280Z,98.96
2017-12-01T06:54:53.284Z,98.82
2017-12-01T06:55:53.262Z,99.43
2017-12-01T06:56:53.255Z,99.05
2017-12-01T06:57:53.238Z,98.72
2017-12-01T06:58:53.221Z,99.29
2017-12-01T06:59:53.204Z,99.48
2017-12-01T07:00:53.181Z,99.43
2017-12-01T07:01:53.169Z,99.43
2017-12-01T07:02:53.154Z,99.33
2017-12-01T07:03:53.171Z,99.33
2017-12-01T07:04:53.118Z,99.05
2017-12-01T07:05:53.114Z,99.05
2017-12-01T07:06:53.096Z,99.05
2017-12-01T07:07:53.086Z,99.15
2017-12-01T07:08:53.061Z,99.05
2017-12-01T07:09:53.059Z,99.05
2017-12-01T07:10:53.045Z,99.43
2017-12-01T07:11:53.019Z,98.86
2017-12-01T07:12:53.039Z,99.24
2017-12-01T07:13:52.988Z,98.86
2017-12-01T07:14:52.980Z,99.05
2017-12-01T07:15:52.955Z,98.86
2017-12-01T07:16:52.939Z,98.68
2017-12-01T07:17:52.928Z,98.39
2017-12-01T07:18:52.920Z,98.68
2017-12-01T07:19:52.903Z,98.39
2017-12-01T07:20:52.890Z,98.39
2017-12-01T07:21:52.884Z,98.63
2017-12-01T07:22:52.859Z,98.06
2017-12-01T07:23:52.836Z,97.78
2017-12-01T07:24:52.831Z,97.68
2017-12-01T07:25:52.816Z,98.06
2017-12-01T07:26:52.570Z,98.06
2017-12-01T07:27:52.532Z,98.06
2017-12-01T07:28:52.767Z,97.78
2017-12-01T07:29:52.749Z,97.97
2017-12-01T07:30:52.485Z,97.97
2017-12-01T07:31:52.732Z,97.49
2017-12-01T07:32:52.708Z,97.78
2017-12-01T07:33:52.712Z,97.21
2017-12-01T07:34:52.717Z,97.4
2017-12-01T07:35:52.681Z,96.92
2017-12-01T07:36:52.658Z,97.4
2017-12-01T07:37:52.647Z,97.68
2017-12-01T07:38:52.631Z,97.11
2017-12-01T07:39:52.617Z,97.02
2017-12-01T07:40:52.592Z,97.3
2017-12-01T07:41:52.587Z,97.16
2017-12-01T07:42:52.565Z,97.07
2017-12-01T07:43:52.560Z,96.88
2017-12-01T07:44:52.537Z,96.41
2017-12-01T07:45:52.523Z,96.31
2017-12-01T07:46:52.514Z,96.5
2017-12-01T07:47:52.506Z,96.69
2017-12-01T07:48:52.226Z,96.5
2017-12-01T07:49:52.478Z,96.03
2017-12-01T07:50:52.459Z,96.03
2017-12-01T07:51:52.452Z,96.69
2017-12-01T07:52:52.437Z,96.41
2017-12-01T07:53:52.414Z,96.03
2017-12-01T07:54:52.399Z,96.12
2017-12-01T07:55:52.387Z,95.93
2017-12-01T07:56:52.120Z,95.74
2017-12-01T07:57:52.111Z,96.03
2017-12-01T07:58:52.358Z,95.84
2017-12-01T07:59:52.343Z,95.65
2017-12-01T08:00:52.324Z,96.12
2017-12-01T08:01:52.320Z,95.93
2017-12-01T08:02:52.353Z,96.41
2017-12-01T08:03:52.281Z,96.22
2017-12-01T08:04:52.274Z,95.55
2017-12-01T08:05:52.260Z,95.65
2017-12-01T08:06:52.239Z,95.65
2017-12-01T08:07:52.224Z,95.88
2017-12-01T08:08:51.960Z,95.45
2017-12-01T08:09:52.199Z,95.36
2017-12-01T08:10:52.188Z,95.41
2017-12-01T08:11:52.175Z,95.45
2017-12-01T08:12:52.168Z,95.31
2017-12-01T08:13:52.153Z,95.31
2017-12-01T08:14:52.192Z,95.41
2017-12-01T08:15:52.110Z,95.31
2017-12-01T08:16:52.107Z,95.31
2017-12-01T08:17:52.091Z,94.74
2017-12-01T08:18:52.085Z,94.74
2017-12-01T08:19:52.098Z,95.03
2017-12-01T08:20:52.310Z,94.84
2017-12-01T08:21:52.040Z,94.84
2017-12-01T08:22:51.766Z,94.84
2017-12-01T08:23:51.759Z,94.65
2017-12-01T08:24:52.004Z,94.74
2017-12-01T08:25:51.996Z,94.56
2017-12-01T08:26:51.968Z,94.37
2017-12-01T08:27:51.972Z,94.37
2017-12-01T08:28:51.961Z,94.65
2017-12-01T08:29:51.703Z,94.74
2017-12-01T08:30:51.958Z,94.74
2017-12-01T08:31:51.908Z,94.37
2017-12-01T08:32:51.903Z,94.65
2017-12-01T08:33:51.885Z,94.56
2017-12-01T08:34:51.873Z,94.46
2017-12-01T08:35:51.855Z,94.56
2017-12-01T08:36:51.851Z,93.99
2017-12-01T08:37:51.844Z,94.27
2017-12-01T08:38:51.822Z,94.32
2017-12-01T08:39:51.776Z,93.89
2017-12-01T08:40:51.822Z,93.41
2017-12-01T08:41:51.832Z,93.7
2017-12-01T08:42:51.822Z,93.84
2017-12-01T08:43:51.996Z,93.94
2017-12-01T08:44:51.754Z,93.65
2017-12-01T08:45:51.747Z,93.75
2017-12-01T08:46:51.775Z,93.65
2017-12-01T08:47:51.782Z,93.56
2017-12-01T08:48:51.752Z,93.18
2017-12-01T08:49:51.713Z,93.18
2017-12-01T08:50:51.449Z,93.46
2017-12-01T08:51:51.403Z,93.56
2017-12-01T08:52:51.660Z,93.65
2017-12-01T08:53:51.652Z,93.75
2017-12-01T08:54:51.635Z,93.65
2017-12-01T08:55:51.613Z,93.46
2017-12-01T08:56:51.593Z,93.75
2017-12-01T08:57:51.585Z,93.37
2017-12-01T08:58:51.589Z,93.46
2017-12-01T08:59:51.567Z,93.37
2017-12-01T09:00:51.546Z,93.27
2017-12-01T09:01:51.556Z,93.27
2017-12-01T09:02:51.544Z,93.27
2017-12-01T09:03:51.510Z,92.9
2017-12-01T09:04:51.513Z,93.18
2017-12-01T09:05:51.487Z,92.9
2017-12-01T09:06:51.465Z,92.61
2017-12-01T09:07:51.453Z,92.66
2017-12-01T09:08:51.469Z,92.85
2017-12-01T09:09:51.459Z,92.75
2017-12-01T09:10:51.439Z,92.18
2017-12-01T09:11:52.787Z,92.56
2017-12-01T09:12:51.409Z,92.37
2017-12-01T09:13:51.382Z,92.09
2017-12-01T09:14:51.374Z,92.09
2017-12-01T09:15:51.373Z,92.09
2017-12-01T09:16:51.356Z,92.37
2017-12-01T09:17:51.353Z,92.37
2017-12-01T09:18:51.336Z,92.09
2017-12-01T09:19:51.309Z,92.09
2017-12-01T09:20:51.357Z,92.09
2017-12-01T09:21:51.291Z,92.28
2017-12-01T09:22:51.277Z,92.28
2017-12-01T09:23:51.267Z,92.28
2017-12-01T09:24:51.245Z,92.09
2017-12-01T09:25:51.232Z,92.37
2017-12-01T09:26:51.222Z,92.28
2017-12-01T09:27:51.215Z,92.18
2017-12-01T09:28:51.203Z,92.37
2017-12-01T09:29:51.208Z,92.09
2017-12-01T09:30:51.191Z,92.28
2017-12-01T09:31:51.159Z,92.37
2017-12-01T09:32:51.159Z,91.42
2017-12-01T09:33:51.156Z,91.89
2017-12-01T09:34:51.140Z,91.89
2017-12-01T09:35:51.131Z,91.33
2017-12-01T09:36:51.104Z,91.52
2017-12-01T09:37:51.155Z,91.61
2017-12-01T09:38:51.153Z,91.42
2017-12-01T09:39:51.094Z,92.09
2017-12-01T09:40:51.101Z,92.18
2017-12-01T09:41:51.075Z,92.47
2017-12-01T09:42:51.045Z,91.52
2017-12-01T09:43:51.044Z,91.85
2017-12-01T09:44:51.016Z,91.94
2017-12-01T09:45:51.007Z,91.85
2017-12-01T09:46:51.028Z,91.19
2017-12-01T09:47:51.012Z,90.99
2017-12-01T09:48:50.986Z,90.71
2017-12-01T09:49:50.979Z,90.8
2017-12-01T09:50:50.957Z,91.09
2017-12-01T09:51:50.952Z,90.9
2017-12-01T09:52:50.935Z,91.19
2017-12-01T09:53:50.951Z,91.28
2017-12-01T09:54:50.907Z,90.9
2017-12-01T09:55:50.931Z,90.71
2017-12-01T09:56:50.870Z,90.8
2017-12-01T09:57:50.880Z,90.71
2017-12-01T09:58:50.598Z,90.61
2017-12-01T09:59:50.845Z,90.42
2017-12-01T10:00:50.832Z,91.28
2017-12-01T10:01:50.843Z,90.8
2017-12-01T10:02:50.812Z,90.61
2017-12-01T10:03:50.540Z,90.99
2017-12-01T10:04:50.523Z,90.75
2017-12-01T10:05:50.781Z,90.42
2017-12-01T10:06:50.773Z,90.19
2017-12-01T10:07:50.762Z,89.86
2017-12-01T10:08:50.738Z,90.05
2017-12-01T10:09:50.730Z,90.05
2017-12-01T10:10:50.722Z,90.71
2017-12-01T10:11:50.698Z,90.71
2017-12-01T10:12:50.719Z,90.71
2017-12-01T10:13:50.683Z,89.86
2017-12-01T10:14:50.676Z,89.95
2017-12-01T10:15:50.658Z,90.52
2017-12-01T10:16:50.653Z,90.14
2017-12-01T10:17:50.640Z,90.42
2017-12-01T10:18:50.638Z,90.52
2017-12-01T10:19:50.614Z,90.33
2017-12-01T10:20:50.613Z,90.42
2017-12-01T10:21:50.610Z,90.71
2017-12-01T10:22:50.601Z,90.71
2017-12-01T10:23:50.573Z,90.52
2017-12-01T10:24:50.625Z,90.42
2017-12-01T10:25:50.568Z,90.71
2017-12-01T10:26:50.551Z,90.71
2017-12-01T10:27:50.535Z,90.52
2017-12-01T10:28:50.520Z,90.05
2017-12-01T10:29:50.526Z,90.52
2017-12-01T10:30:50.501Z,90.23
2017-12-01T10:31:50.518Z,90.42
2017-12-01T10:32:50.485Z,90.71
2017-12-01T10:33:50.531Z,90.52
2017-12-01T10:34:50.471Z,90.42
2017-12-01T10:35:50.481Z,90.52
2017-12-01T10:36:50.435Z,90.8
2017-12-01T10:37:50.431Z,90.9
2017-12-01T10:38:50.427Z,90.8
2017-12-01T10:39:50.403Z,90.8
2017-12-01T10:40:50.400Z,90.9
2017-12-01T10:41:50.402Z,90.8
2017-12-01T10:42:50.385Z,90.71
2017-12-01T10:43:50.355Z,90.71
2017-12-01T10:44:50.349Z,90.61
2017-12-01T10:45:50.330Z,91.09
2017-12-01T10:46:50.349Z,90.61
2017-12-01T10:47:50.541Z,90.9
2017-12-01T10:48:50.323Z,90.9
2017-12-01T10:49:50.317Z,90.8
2017-12-01T10:50:50.292Z,90.61
2017-12-01T10:51:50.334Z,90.99
2017-12-01T10:52:50.264Z,91.28
2017-12-01T10:53:50.318Z,91.19
2017-12-01T10:54:50.274Z,91.09
2017-12-01T10:55:50.258Z,91.38
2017-12-01T10:56:50.222Z,91.56
2017-12-01T10:57:50.198Z,91.28
2017-12-01T10:58:50.206Z,91.85
2017-12-01T10:59:49.962Z,92.04
2017-12-01T11:00:49.908Z,92.13
2017-12-01T11:01:50.174Z,91.85
2017-12-01T11:02:50.184Z,92.28
2017-12-01T11:03:50.182Z,91.99
2017-12-01T11:04:50.386Z,91.94
2017-12-01T11:05:50.164Z,92.09
2017-12-01T11:06:50.109Z,91.66
2017-12-01T11:07:50.093Z,92.13
2017-12-01T11:08:50.100Z,91.8
2017-12-01T11:09:50.092Z,91.89
2017-12-01T11:10:49.803Z,91.99
2017-12-01T11:11:50.067Z,92.28
2017-12-01T11:12:50.057Z,92.18
2017-12-01T11:13:50.032Z,92.09
2017-12-01T11:14:50.064Z,92.28
2017-12-01T11:15:49.753Z,92.37
2017-12-01T11:16:50.023Z,93.04
2017-12-01T11:17:50.003Z,92.85
2017-12-01T11:18:49.989Z,93.23
2017-12-01T11:19:49.987Z,92.37
2017-12-01T11:20:49.970Z,92.75
2017-12-01T11:21:49.979Z,92.56
2017-12-01T11:22:49.944Z,92.28
2017-12-01T11:23:49.679Z,92.09
2017-12-01T11:24:49.916Z,92.09
2017-12-01T11:25:49.640Z,91.99
2017-12-01T11:26:49.900Z,92.09
2017-12-01T11:27:49.882Z,91.99
2017-12-01T11:28:49.864Z,91.89
2017-12-01T11:29:49.858Z,92.18
2017-12-01T11:30:49.870Z,92.71
2017-12-01T11:31:49.831Z,92.66
2017-12-01T11:32:49.853Z,92.09
2017-12-01T11:33:50.035Z,92.23
2017-12-01T11:34:49.781Z,91.94
2017-12-01T11:35:49.774Z,92.04
2017-12-01T11:36:49.820Z,92.23
2017-12-01T11:37:49.740Z,92.13
2017-12-01T11:38:49.733Z,91.66
2017-12-01T11:39:49.730Z,92.32
2017-12-01T11:40:49.744Z,92.32
2017-12-01T11:41:49.739Z,92.23
2017-12-01T11:42:49.731Z,92.8
2017-12-01T11:43:49.738Z,92.71
2017-12-01T11:44:49.681Z,92.13
2017-12-01T11:45:49.676Z,92.13
2017-12-01T11:46:49.652Z,92.23
2017-12-01T11:47:49.637Z,91.94
2017-12-01T11:48:49.622Z,91.94
2017-12-01T11:49:49.612Z,91.66
2017-12-01T11:50:49.593Z,92.13
2017-12-01T11:51:49.574Z,92.23
2017-12-01T11:52:49.569Z,91.94
2017-12-01T11:53:49.616Z,90.99
2017-12-01T11:54:49.545Z,91.28
2017-12-01T11:55:49.532Z,91.47
2017-12-01T11:56:49.556Z,91.94
2017-12-01T11:57:49.516Z,91.66
2017-12-01T11:58:49.498Z,91.75
2017-12-01T11:59:49.493Z,92.04
2017-12-01T12:00:49.491Z,91.94
2017-12-01T12:01:49.467Z,91.56
2017-12-01T12:02:49.497Z,91.28
2017-12-01T12:03:49.456Z,91.28
2017-12-01T12:04:49.448Z,91.28
2017-12-01T12:05:49.426Z,91.38
2017-12-01T12:06:49.423Z,90.8
2017-12-01T12:07:49.403Z,91.38
2017-12-01T12:08:49.398Z,91.09
2017-12-01T12:09:49.376Z,91.66
2017-12-01T12:10:49.372Z,91.47
2017-12-01T12:11:49.353Z,91.75
2017-12-01T12:12:49.089Z,91.66
2017-12-01T12:13:49.339Z,91.85
2017-12-01T12:14:49.381Z,91.66
2017-12-01T12:15:49.311Z,91.75
2017-12-01T12:16:49.332Z,91.66
2017-12-01T12:17:49.309Z,92.23
2017-12-01T12:18:49.020Z,92.32
2017-12-01T12:19:49.278Z,92.42
2017-12-01T12:20:49.257Z,92.28
2017-12-01T12:21:49.247Z,91.89
2017-12-01T12:22:49.237Z,92.47
2017-12-01T12:23:49.226Z,92.56
2017-12-01T12:24:49.220Z,92.37
2017-12-01T12:25:49.202Z,92.75
2017-12-01T12:26:49.213Z,93.23
2017-12-01T12:27:49.185Z,93.6
2017-12-01T12:28:49.165Z,93.51
2017-12-01T12:29:48.902Z,93.7
2017-12-01T12:30:49.147Z,93.32
2017-12-01T12:31:49.136Z,93.32
2017-12-01T12:32:49.169Z,93.32
2017-12-01T12:33:49.108Z,93.6
2017-12-01T12:34:49.090Z,94.18
2017-12-01T12:35:49.095Z,94.08
2017-12-01T12:36:49.082Z,93.99
2017-12-01T12:37:49.111Z,94.37
2017-12-01T12:38:49.126Z,93.6
2017-12-01T12:39:49.037Z,93.41
2017-12-01T12:40:49.039Z,93.23
2017-12-01T12:41:49.014Z,94.08
2017-12-01T12:42:49.016Z,94.18
2017-12-01T12:43:48.992Z,93.99
2017-12-01T12:44:49.031Z,94.08
2017-12-01T12:45:48.968Z,94.27
2017-12-01T12:46:48.983Z,94.37
2017-12-01T12:47:48.940Z,94.89
2017-12-01T12:48:48.932Z,94.6
2017-12-01T12:49:48.941Z,94.6
2017-12-01T12:50:48.912Z,94.6
2017-12-01T12:51:48.917Z,94.42
2017-12-01T12:52:48.900Z,95.36
2017-12-01T12:53:48.870Z,95.27
2017-12-01T12:54:48.865Z,95.27